createdAt,value
2017-09-18T00:01:58.823Z,100868.77
2017-09-18T00:07:00.770Z,100862.34
2017-09-18T00:12:02.755Z,100867.51
2017-09-18T00:17:04.695Z,100867.45
2017-09-18T00:22:06.673Z,100867.58
2017-09-18T00:27:08.680Z,100872.50
2017-09-18T00:32:10.657Z,100867.45
2017-09-18T00:37:13.454Z,100863.02
2017-09-18T00:42:15.576Z,100859.08
2017-09-18T00:47:18.480Z,100857.87
2017-09-18T00:52:21.467Z,100860.25
2017-09-18T00:57:23.479Z,100854.37
2017-09-18T01:02:26.229Z,100859.83
2017-09-18T01:07:28.217Z,100862.83
2017-09-18T01:12:30.313Z,100867.56
2017-09-18T01:17:33.053Z,100861.03
2017-09-18T01:22:35.101Z,100858.09
2017-09-18T01:27:37.091Z,100856.92
2017-09-18T01:32:39.822Z,100858.06
2017-09-18T01:37:41.828Z,100854.50
2017-09-18T01:42:43.791Z,100861.55
2017-09-18T01:47:45.811Z,100855.05
2017-09-18T01:52:47.828Z,100851.75
2017-09-18T01:57:49.812Z,100859.80
2017-09-18T02:02:51.865Z,100858.67
2017-09-18T02:07:54.925Z,100854.42
2017-09-18T02:12:56.880Z,100863.22
2017-09-18T02:17:59.550Z,100849.69
2017-09-18T02:23:01.566Z,100853.05
2017-09-18T02:28:03.514Z,100845.05
2017-09-18T02:33:05.526Z,100843.87
2017-09-18T02:38:07.526Z,100839.57
2017-09-18T02:43:10.300Z,100844.23
2017-09-18T02:48:12.348Z,100845.58
2017-09-18T02:53:15.041Z,100847.70
2017-09-18T02:58:17.031Z,100857.82
2017-09-18T03:03:19.044Z,100859.12
2017-09-18T03:08:21.046Z,100856.17
2017-09-18T03:13:23.763Z,100859.73
2017-09-18T03:18:25.772Z,100856.42
2017-09-18T03:23:28.530Z,100855.50
2017-09-18T03:28:35.720Z,100855.23
2017-09-18T03:33:39.015Z,100850.28
2017-09-18T03:38:41.160Z,100852.88
2017-09-18T03:43:43.256Z,100853.27
2017-09-18T03:48:45.265Z,100853.65
2017-09-18T03:53:47.248Z,100857.20
2017-09-18T03:58:49.362Z,100859.26
2017-09-18T04:03:51.427Z,100861.83
2017-09-18T04:08:54.496Z,100861.38
2017-09-18T04:13:56.535Z,100860.45
2017-09-18T04:18:58.650Z,100858.69
2017-09-18T04:24:00.683Z,100853.95
2017-09-18T04:29:04.386Z,100855.90
2017-09-18T04:34:07.493Z,100859.27
2017-09-18T04:39:09.486Z,100853.31
2017-09-18T04:44:11.455Z,100853.73
2017-09-18T04:49:13.845Z,100866.55
2017-09-18T04:54:15.906Z,100860.75
2017-09-18T04:59:17.933Z,100864.34
2017-09-18T05:04:19.973Z,100876.48
2017-09-18T05:09:23.923Z,100872.34
2017-09-18T05:14:26.887Z,100883.09
2017-09-18T05:19:28.816Z,100885.39
2017-09-18T05:24:30.844Z,100886.59
2017-09-18T05:29:33.582Z,100889.03
2017-09-18T05:34:36.350Z,100889.85
2017-09-18T05:39:38.266Z,100896.52
2017-09-18T05:44:40.481Z,100894.14
2017-09-18T05:49:42.479Z,100893.32
2017-09-18T05:54:51.459Z,100897.95
2017-09-18T05:59:59.612Z,100902.70
2017-09-18T06:05:02.327Z,100898.84
2017-09-18T06:10:05.534Z,100898.82
2017-09-18T06:15:08.532Z,100898.98
2017-09-18T06:20:10.737Z,100903.14
2017-09-18T06:25:12.719Z,100893.55
2017-09-18T06:30:14.782Z,100910.50
2017-09-18T06:35:17.588Z,100910.81
2017-09-18T06:40:20.668Z,100911.27
2017-09-18T06:45:22.673Z,100915.83
2017-09-18T06:50:25.590Z,100906.45
2017-09-18T06:55:28.185Z,100912.81
2017-09-18T07:00:30.467Z,100922.76
2017-09-18T07:05:32.681Z,100931.80
2017-09-18T07:10:35.245Z,100931.66
2017-09-18T07:15:37.420Z,100941.29
2017-09-18T07:20:39.594Z,100948.80
2017-09-18T07:25:42.348Z,100953.56
2017-09-18T07:30:44.522Z,100956.59
2017-09-18T07:35:46.990Z,100962.12
2017-09-18T07:40:50.153Z,100967.10
2017-09-18T07:45:52.681Z,100966.30
2017-09-18T07:50:55.471Z,100966.73
2017-09-18T07:55:59.527Z,100968.70
2017-09-18T08:01:01.950Z,100969.40
2017-09-18T08:06:06.668Z,100970.34
2017-09-18T08:11:12.115Z,100976.37
2017-09-18T08:16:14.617Z,100964.38
2017-09-18T08:21:19.229Z,100963.89
2017-09-18T08:26:23.105Z,100965.92
2017-09-18T08:31:26.099Z,100972.48
2017-09-18T08:36:32.780Z,100971.36
2017-09-18T08:41:35.182Z,100971.92
2017-09-18T08:46:37.577Z,100963.64
2017-09-18T08:51:39.525Z,100966.16
2017-09-18T08:56:41.690Z,100971.59
2017-09-18T09:01:43.654Z,100979.14
2017-09-18T09:06:45.697Z,100970.17
2017-09-18T09:11:48.165Z,100968.74
2017-09-18T09:16:51.440Z,100977.20
2017-09-18T09:21:55.948Z,100975.17
2017-09-18T09:26:57.890Z,100975.58
2017-09-18T09:32:02.491Z,100982.09
2017-09-18T09:37:06.274Z,100974.89
2017-09-18T09:42:08.295Z,100978.66
2017-09-18T09:47:11.383Z,100981.17
2017-09-18T09:52:13.411Z,100982.96
2017-09-18T09:57:18.218Z,100983.22
2017-09-18T10:02:20.188Z,100982.83
2017-09-18T10:07:22.139Z,100987.95
2017-09-18T10:12:24.906Z,100987.34
2017-09-18T10:17:26.830Z,100991.58
2017-09-18T10:22:28.923Z,100990.83
2017-09-18T10:27:33.257Z,100989.62
2017-09-18T10:32:35.218Z,100993.52
2017-09-18T10:37:37.203Z,101002.14
2017-09-18T10:42:39.217Z,100999.87
2017-09-18T10:47:41.212Z,100999.88
2017-09-18T10:52:43.233Z,101001.92
2017-09-18T10:57:45.539Z,101005.85
2017-09-18T11:02:47.556Z,101004.36
2017-09-18T11:07:49.542Z,100999.11
2017-09-18T11:12:51.464Z,100995.39
2017-09-18T11:17:54.419Z,100992.05
2017-09-18T11:22:57.557Z,100986.13
2017-09-18T11:27:59.967Z,100981.48
2017-09-18T11:33:01.995Z,100979.87
2017-09-18T11:38:05.615Z,100980.85
2017-09-18T11:43:07.620Z,100980.17
2017-09-18T11:48:09.674Z,100978.87
2017-09-18T11:53:12.674Z,100979.72
2017-09-18T11:58:14.675Z,100984.62
2017-09-18T12:03:16.788Z,100977.33
2017-09-18T12:08:18.983Z,100978.21
2017-09-18T12:13:21.007Z,100978.91
2017-09-18T12:18:22.968Z,100982.70
2017-09-18T12:23:24.961Z,100975.27
2017-09-18T12:28:27.323Z,100978.88
2017-09-18T12:33:36.210Z,100976.23
2017-09-18T12:38:38.200Z,100965.27
2017-09-18T12:43:40.610Z,100962.44
2017-09-18T12:48:42.651Z,100954.12
2017-09-18T12:53:45.052Z,100956.56
2017-09-18T12:58:47.083Z,100955.09
2017-09-18T13:03:49.834Z,100957.97
2017-09-18T13:08:51.782Z,100954.36
2017-09-18T13:13:53.741Z,100961.86
2017-09-18T13:18:55.755Z,100961.64
2017-09-18T13:23:57.954Z,100953.36
2017-09-18T13:29:00.653Z,100954.04
2017-09-18T13:34:02.843Z,100956.14
2017-09-18T13:39:04.945Z,100954.06
2017-09-18T13:44:06.914Z,100953.88
2017-09-18T13:49:08.920Z,100953.73
2017-09-18T13:54:12.655Z,100948.13
2017-09-18T13:59:14.600Z,100954.59
2017-09-18T14:04:16.563Z,100960.00
2017-09-18T14:09:18.522Z,100961.87
2017-09-18T14:14:20.474Z,100968.59
2017-09-18T14:19:23.161Z,100959.92
2017-09-18T14:24:25.327Z,100955.81
2017-09-18T14:29:27.296Z,100952.50
2017-09-18T14:34:29.266Z,100941.77
2017-09-18T14:39:32.512Z,100944.52
2017-09-18T14:44:34.479Z,100950.19
2017-09-18T14:49:36.909Z,100946.73
2017-09-18T14:54:38.894Z,100948.72
2017-09-18T14:59:40.851Z,100948.98
2017-09-18T15:04:43.018Z,100943.48
2017-09-18T15:09:45.024Z,100945.45
2017-09-18T15:14:47.031Z,100953.66
2017-09-18T15:19:48.997Z,100950.26
2017-09-18T15:24:50.980Z,100953.07
2017-09-18T15:29:52.937Z,100948.81
2017-09-18T15:34:55.157Z,100947.12
2017-09-18T15:39:57.151Z,100945.97
2017-09-18T15:44:59.914Z,100942.34
2017-09-18T15:50:02.051Z,100949.99
2017-09-18T15:55:04.784Z,100955.94
2017-09-18T16:00:06.846Z,100955.28
2017-09-18T16:05:09.217Z,100955.27
2017-09-18T16:10:11.217Z,100958.42
2017-09-18T16:15:13.214Z,100961.23
2017-09-18T16:20:15.226Z,100960.62
2017-09-18T16:25:17.288Z,100967.48
2017-09-18T16:30:19.299Z,100963.72
2017-09-18T16:35:22.145Z,100966.05
2017-09-18T16:40:24.258Z,100963.81
2017-09-18T16:45:26.554Z,100980.03
2017-09-18T16:50:28.633Z,100975.59
2017-09-18T16:55:31.256Z,100959.30
2017-09-18T17:00:34.744Z,100976.65
2017-09-18T17:05:39.688Z,100971.53
2017-09-18T17:10:42.022Z,100981.95
2017-09-18T17:15:44.518Z,100987.04
2017-09-18T17:20:47.797Z,100978.98
2017-09-18T17:25:49.920Z,100973.10
2017-09-18T17:30:58.160Z,100973.83
2017-09-18T17:36:00.159Z,100986.30
2017-09-18T17:41:03.207Z,100938.69
2017-09-18T17:46:06.813Z,100983.61
2017-09-18T17:51:09.629Z,100996.27
2017-09-18T17:56:11.614Z,101000.92
2017-09-18T18:01:13.631Z,101004.27
2017-09-18T18:06:16.017Z,101013.08
2017-09-18T18:11:18.189Z,101007.28
2017-09-18T18:16:20.439Z,101015.95
2017-09-18T18:21:23.012Z,101023.58
2017-09-18T18:26:24.963Z,101020.63
2017-09-18T18:31:28.435Z,101026.69
2017-09-18T18:36:30.890Z,101027.43
2017-09-18T18:41:32.915Z,101029.39
2017-09-18T18:46:34.879Z,101032.05
2017-09-18T18:51:38.416Z,101028.94
2017-09-18T18:56:40.446Z,101034.33
2017-09-18T19:01:42.563Z,101035.34
2017-09-18T19:06:44.603Z,101024.41
2017-09-18T19:11:49.681Z,101030.08
2017-09-18T19:16:55.719Z,101032.16
2017-09-18T19:22:00.732Z,101034.91
2017-09-18T19:27:02.805Z,101037.38
2017-09-18T19:32:07.173Z,101049.03
2017-09-18T19:37:09.507Z,101048.62
2017-09-18T19:42:12.371Z,101048.75
2017-09-18T19:47:14.854Z,101051.73
2017-09-18T19:52:17.138Z,101053.52
2017-09-18T19:57:19.465Z,101057.28
2017-09-18T20:02:21.804Z,101058.69
2017-09-18T20:07:24.307Z,101061.02
2017-09-18T20:12:26.829Z,101067.58
2017-09-18T20:17:30.014Z,101070.56
2017-09-18T20:22:32.289Z,101068.48
2017-09-18T20:27:34.702Z,101071.91
2017-09-18T20:32:36.723Z,101072.19
2017-09-18T20:37:39.238Z,101072.92
2017-09-18T20:42:41.288Z,101071.87
2017-09-18T20:47:43.374Z,101076.63
2017-09-18T20:52:45.444Z,101074.88
2017-09-18T20:57:47.416Z,101078.91
2017-09-18T21:02:50.203Z,101076.45
2017-09-18T21:07:52.968Z,101079.69
2017-09-18T21:12:55.021Z,101078.72
2017-09-18T21:17:56.974Z,101074.75
2017-09-18T21:22:59.130Z,101080.45
2017-09-18T21:28:01.189Z,101076.69
2017-09-18T21:33:03.394Z,101072.07
2017-09-18T21:38:05.379Z,101080.60
2017-09-18T21:43:08.068Z,101085.27
2017-09-18T21:48:10.068Z,101083.19
2017-09-18T21:53:12.063Z,101078.34
2017-09-18T21:58:14.062Z,101078.08
2017-09-18T22:03:18.032Z,101074.20
2017-09-18T22:08:20.334Z,101075.94
2017-09-18T22:13:22.668Z,101078.14
2017-09-18T22:18:24.663Z,101075.58
2017-09-18T22:23:26.650Z,101070.04
2017-09-18T22:28:28.675Z,101068.95
2017-09-18T22:33:30.884Z,101070.20
2017-09-18T22:38:33.702Z,101065.83
2017-09-18T22:43:35.675Z,101064.50
2017-09-18T22:48:37.663Z,101062.91
2017-09-18T22:53:40.475Z,101055.23
2017-09-18T22:58:42.587Z,101057.56
2017-09-18T23:03:46.112Z,101055.96
2017-09-18T23:08:48.188Z,101057.97
2017-09-18T23:13:53.504Z,101055.84
2017-09-18T23:18:55.456Z,101059.22
2017-09-18T23:23:57.456Z,101059.31
2017-09-18T23:28:59.539Z,101059.81
2017-09-18T23:34:01.590Z,101064.71
2017-09-18T23:39:03.895Z,101062.44
2017-09-18T23:44:05.943Z,101057.55
2017-09-18T23:49:08.657Z,101054.17
2017-09-18T23:54:11.386Z,101056.59
2017-09-18T23:59:13.375Z,101050.55
